Lake Viking, Missouri
Current Conditions -  °F | °C
As of 7:35 PM on Monday 22 Dec 2014 (Local Time) from KGPH Reporting Station
Overcast Overcast  
Wind Chill: 37°   Ceiling: 8500
Heat Index: 43°   Visibility: 10mi
Dew Point: 41°   Wind: 9mph
Humidity: 93%   Direction: 250°WSW
Pressure: 29.5"   Gusts: NA
Location:  39.8573°N, 93.9615°W
Report Text: KGPH 230135Z AUTO 25008KT 10SM OVC085 06/05 A2950 RMK AO2
Loading
Personal Weather Stations






























Interactive Weather Map New forecast layout! Learn more

10-Day Weather Forecast

Advertisements
Track Severe Weather on mobile